KFME/FME METAR and TAF weather

Enter ICAO airport designator
Station Type Date Time Source
KFME METAR 2022/05/26 03:39 UTC NOAA

KFME 260339Z AUTO 11006KT 10SM OVC050 15/06 A3034 RMK AO1


Station Type Date Time Source
KFME Decoded METAR 2022/05/26 03:39 UTC NOAA

Fort Meade / Tipton, MD, United States (KFME) 39-05N 076-46W
May 25, 2022 - 11:39 PM EDT / 2022.05.26 0339 UTC
Wind: from the ESE (110 degrees) at 7 MPH (6 KT):0
Visibility: 10 mile(s):0
Sky conditions: overcast
Temperature: 59 F (15 C)
Dew Point: 42 F (6 C)
Relative Humidity: 54%
Pressure (altimeter): 30.34 in. Hg (1027 hPa)
ob: KFME 260339Z AUTO 11006KT 10SM OVC050 15/06 A3034 RMK AO1
cycle: 3

Station Type Date Time Source
KFME TAF UTC NOAA

Error!

Example: see airport list